Time;durP1;ratioP1;P1;durP2;ratioP2;P2;SDS_P1;SDS_P2;PMS_P1;PMS_P2;Temp;Humidity;BMP_temperature;BMP_pressure;BME280_temperature;BME280_humidity;BME280_pressure;Samples;Min_cycle;Max_cycle;Signal;HPM_P1;HPM_P2
2021/05/13 00:02:23;;;;;;;4.53;2.30;;;;;;;13.23;100.00;100280.94;5065086;28;20956;-72
2021/05/13 00:04:49;;;;;;;1.80;1.70;;;;;;;13.24;100.00;100288.00;5073075;28;20515;-73
2021/05/13 00:07:14;;;;;;;2.27;1.87;;;;;;;13.27;100.00;100284.59;5065763;28;20470;-73
2021/05/13 00:09:42;;;;;;;2.10;1.87;;;;;;;13.26;100.00;100275.66;5053089;28;20473;-73
2021/05/13 00:12:14;;;;;;;1.83;1.47;;;;;;;13.22;100.00;100272.00;5061775;28;21039;-72
2021/05/13 00:14:40;;;;;;;1.97;1.67;;;;;;;13.19;100.00;100277.25;5072226;28;20433;-72
2021/05/13 00:17:08;;;;;;;1.60;1.47;;;;;;;13.19;100.00;100267.16;5072956;28;20473;-73
2021/05/13 00:19:34;;;;;;;3.10;1.93;;;;;;;13.20;100.00;100265.25;5072525;28;20567;-73
2021/05/13 00:21:59;;;;;;;3.03;2.13;;;;;;;13.11;100.00;100263.38;5071962;28;20441;-72
2021/05/13 00:24:25;;;;;;;1.10;0.93;;;;;;;13.04;100.00;100262.28;5072585;28;20448;-72
2021/05/13 00:26:51;;;;;;;1.53;1.30;;;;;;;13.02;100.00;100253.66;5072323;28;20465;-73
2021/05/13 00:29:21;;;;;;;11.60;1.60;;;;;;;13.03;100.00;100257.97;5072812;28;20528;-73
2021/05/13 00:31:47;;;;;;;10.83;1.63;;;;;;;13.04;100.00;100251.41;5068691;28;20922;-72
2021/05/13 00:34:14;;;;;;;3.20;2.30;;;;;;;13.04;100.00;100245.97;5072438;28;20450;-72
2021/05/13 00:36:40;;;;;;;2.77;1.70;;;;;;;13.04;100.00;100251.41;5072669;28;20461;-72
2021/05/13 00:39:08;;;;;;;2.63;1.70;;;;;;;13.06;100.00;100251.88;5055278;28;20504;-72
2021/05/13 00:41:34;;;;;;;2.37;1.63;;;;;;;13.05;100.00;100251.06;5053026;28;20449;-72
2021/05/13 00:44:00;;;;;;;1.40;1.20;;;;;;;12.93;100.00;100248.25;5052704;28;20491;-72
2021/05/13 00:46:26;;;;;;;2.17;1.30;;;;;;;12.92;100.00;100248.56;5070901;28;20576;-72
2021/05/13 00:49:00;;;;;;;2.07;1.37;;;;;;;12.92;100.00;100243.13;5072386;28;20450;-72
2021/05/13 00:51:27;;;;;;;2.77;1.47;;;;;;;12.90;100.00;100235.28;5072716;28;20527;-73
2021/05/13 00:53:55;;;;;;;2.47;1.60;;;;;;;12.85;100.00;100224.59;5072964;28;20442;-72
2021/05/13 00:56:21;;;;;;;1.33;1.20;;;;;;;12.85;100.00;100222.69;5064726;28;20536;-72
2021/05/13 00:58:49;;;;;;;1.57;1.23;;;;;;;12.86;100.00;100228.91;5052819;28;20465;-73
2021/05/13 01:01:17;;;;;;;3.03;1.83;;;;;;;12.76;100.00;100215.69;5069499;28;20451;-72
2021/05/13 01:03:44;;;;;;;2.40;1.70;;;;;;;12.76;100.00;100230.06;5059882;28;20447;-72
2021/05/13 01:06:12;;;;;;;2.90;1.93;;;;;;;12.76;100.00;100218.41;5052508;28;20486;-71
2021/05/13 01:08:39;;;;;;;2.60;1.57;;;;;;;12.67;100.00;100215.72;5063819;28;20438;-71
2021/05/13 01:11:07;;;;;;;5.20;1.63;;;;;;;12.61;100.00;100211.53;5072577;28;21041;-71
2021/05/13 01:13:35;;;;;;;2.00;1.73;;;;;;;12.63;100.00;100203.88;5071026;28;20478;-71
2021/05/13 01:16:10;;;;;;;1.40;1.23;;;;;;;12.60;100.00;100199.88;5063051;28;20481;-72
2021/05/13 01:18:37;;;;;;;2.87;1.93;;;;;;;12.52;100.00;100194.47;5052634;28;20505;-72
2021/05/13 01:21:03;;;;;;;1.80;1.20;;;;;;;12.44;100.00;100195.28;5060654;28;20528;-71
2021/05/13 01:23:30;;;;;;;1.77;1.57;;;;;;;12.45;100.00;100200.41;5068610;28;20513;-72
2021/05/13 01:25:56;;;;;;;3.50;1.30;;;;;;;12.49;100.00;100203.28;5054236;28;20481;-71
2021/05/13 01:28:24;;;;;;;1.27;1.10;;;;;;;12.51;100.00;100199.13;5057428;28;20871;-71
2021/05/13 01:30:51;;;;;;;3.77;2.30;;;;;;;12.40;100.00;100197.88;5067882;28;20821;-71
2021/05/13 01:33:19;;;;;;;1.50;1.37;;;;;;;12.37;100.00;100182.22;5071845;28;20442;-71
2021/05/13 01:35:46;;;;;;;2.13;1.93;;;;;;;12.24;100.00;100178.56;5056103;28;20481;-70
2021/05/13 01:38:14;;;;;;;3.90;1.17;;;;;;;12.19;100.00;100167.88;5066024;28;20536;-71
2021/05/13 01:40:49;;;;;;;1.43;1.30;;;;;;;12.16;100.00;100165.00;5074681;28;20444;-71
2021/05/13 01:43:15;;;;;;;1.87;0.97;;;;;;;12.14;100.00;100165.31;5056063;28;20453;-70
2021/05/13 01:45:42;;;;;;;2.70;1.53;;;;;;;12.04;100.00;100166.47;5064816;28;20485;-71
2021/05/13 01:48:08;;;;;;;1.70;1.13;;;;;;;11.93;100.00;100154.31;5076042;28;20477;-69
2021/05/13 01:50:35;;;;;;;1.93;1.77;;;;;;;12.00;100.00;100156.56;5063038;28;20445;-72
2021/05/13 01:53:04;;;;;;;2.63;1.90;;;;;;;12.00;100.00;100151.94;5055939;28;20438;-71
2021/05/13 01:55:31;;;;;;;6.87;0.93;;;;;;;11.95;100.00;100146.63;5056499;28;20560;-69
2021/05/13 01:57:58;;;;;;;2.13;1.43;;;;;;;12.01;100.00;100150.00;5056553;28;20968;-72
2021/05/13 02:00:24;;;;;;;2.40;1.27;;;;;;;11.93;100.00;100138.03;5065741;28;20442;-72
2021/05/13 02:02:50;;;;;;;6.80;1.33;;;;;;;11.96;100.00;100131.19;5057054;28;20446;-70
2021/05/13 02:05:17;;;;;;;1.07;0.73;;;;;;;11.79;100.00;100127.31;5064525;28;20530;-72
2021/05/13 02:07:43;;;;;;;1.43;0.90;;;;;;;11.73;100.00;100117.75;5075075;28;20476;-73
2021/05/13 02:10:10;;;;;;;2.53;2.10;;;;;;;11.70;100.00;100110.25;5057825;28;20457;-73
2021/05/13 02:12:37;;;;;;;2.43;1.90;;;;;;;11.71;100.00;100121.91;5071269;28;20503;-73
2021/05/13 02:15:06;;;;;;;2.37;1.43;;;;;;;11.70;100.00;100112.97;5069880;28;20503;-73
2021/05/13 02:17:32;;;;;;;3.03;1.20;;;;;;;11.73;100.00;100114.22;5064832;28;20466;-72
2021/05/13 02:19:58;;;;;;;1.93;1.30;;;;;;;11.74;100.00;100108.50;5071263;28;20979;-73
2021/05/13 02:22:24;;;;;;;3.83;1.40;;;;;;;11.79;100.00;100099.41;5057425;28;20445;-72
2021/05/13 02:24:50;;;;;;;1.73;1.57;;;;;;;11.86;100.00;100105.16;5055246;28;20565;-72
2021/05/13 02:27:16;;;;;;;2.03;1.10;;;;;;;11.93;100.00;100088.38;5057167;28;20473;-71
2021/05/13 02:29:42;;;;;;;3.53;2.23;;;;;;;11.96;100.00;100090.47;5075211;28;20449;-71
2021/05/13 02:32:09;;;;;;;1.90;1.37;;;;;;;11.94;100.00;100085.34;5060514;28;20446;-72
2021/05/13 02:34:35;;;;;;;2.30;1.80;;;;;;;11.93;100.00;100077.53;5056310;28;20446;-72
2021/05/13 02:37:01;;;;;;;6.50;2.37;;;;;;;11.86;100.00;100067.97;5065207;28;20496;-70
2021/05/13 02:39:26;;;;;;;2.20;1.60;;;;;;;11.84;100.00;100075.63;5054968;28;20446;-71
2021/05/13 02:41:52;;;;;;;3.80;1.63;;;;;;;11.75;100.00;100061.25;5060754;28;20448;-70
2021/05/13 02:44:18;;;;;;;2.00;1.27;;;;;;;11.80;100.00;100052.13;5055426;28;20449;-72
2021/05/13 02:46:44;;;;;;;2.83;1.70;;;;;;;11.80;100.00;100052.13;5068021;28;20546;-71
2021/05/13 02:49:11;;;;;;;3.03;1.97;;;;;;;11.85;100.00;100043.84;5071855;28;20817;-71
2021/05/13 02:51:37;;;;;;;4.37;2.00;;;;;;;11.86;100.00;100054.41;5056943;28;20495;-70
2021/05/13 02:54:04;;;;;;;1.73;1.10;;;;;;;11.86;100.00;100050.88;5054710;28;20442;-69
2021/05/13 02:56:30;;;;;;;8.93;1.97;;;;;;;11.85;100.00;100060.13;5054588;28;20488;-71
2021/05/13 02:58:56;;;;;;;1.90;1.40;;;;;;;11.84;100.00;100056.63;5057762;28;20450;-69
2021/05/13 03:01:24;;;;;;;4.30;1.10;;;;;;;11.84;100.00;100067.47;5065150;28;20451;-67
2021/05/13 03:03:50;;;;;;;2.57;2.10;;;;;;;11.78;100.00;100063.31;5072509;28;20502;-70
2021/05/13 03:06:17;;;;;;;3.13;1.57;;;;;;;11.77;100.00;100063.63;5072120;28;20504;-70
2021/05/13 03:08:43;;;;;;;4.57;1.60;;;;;;;11.82;100.00;100064.31;5072512;28;20434;-70
2021/05/13 03:11:10;;;;;;;2.50;2.10;;;;;;;11.88;100.00;100064.94;5054357;28;20450;-70
2021/05/13 03:13:37;;;;;;;2.80;1.43;;;;;;;11.87;100.00;100068.78;5054311;28;20449;-71
2021/05/13 03:16:03;;;;;;;2.00;1.27;;;;;;;11.90;100.00;100070.81;5055143;28;20462;-70
2021/05/13 03:18:32;;;;;;;2.97;1.03;;;;;;;11.84;100.00;100072.13;5071073;28;20452;-71
2021/05/13 03:21:03;;;;;;;4.80;2.27;;;;;;;11.90;100.00;100078.16;5074186;28;20877;-70
2021/05/13 03:23:41;;;;;;;2.30;1.67;;;;;;;11.98;100.00;100074.66;5056670;28;20539;-70
2021/05/13 03:26:07;;;;;;;2.13;1.80;;;;;;;11.88;100.00;100069.56;5060299;28;20531;-71
2021/05/13 03:28:33;;;;;;;1.50;1.20;;;;;;;11.82;100.00;100069.75;5061574;28;20454;-70
2021/05/13 03:30:59;;;;;;;2.17;1.20;;;;;;;11.86;100.00;100073.41;5061740;28;20449;-70
2021/05/13 03:33:25;;;;;;;1.60;1.50;;;;;;;11.82;100.00;100071.59;5073999;28;20437;-70
2021/05/13 03:35:51;;;;;;;3.00;2.27;;;;;;;11.80;100.00;100071.13;5067122;28;20541;-70
2021/05/13 03:38:17;;;;;;;1.87;1.43;;;;;;;11.75;100.00;100074.03;5053880;28;20450;-70
2021/05/13 03:40:44;;;;;;;2.57;1.67;;;;;;;11.83;100.00;100070.53;5065930;28;20439;-70
2021/05/13 03:43:10;;;;;;;2.93;1.63;;;;;;;11.78;100.00;100060.63;5056033;28;20458;-71
2021/05/13 03:45:37;;;;;;;1.43;1.10;;;;;;;11.82;100.00;100064.31;5069999;28;20488;-71
2021/05/13 03:48:04;;;;;;;1.47;1.37;;;;;;;11.82;100.00;100061.59;5054159;28;20794;-71
2021/05/13 03:50:32;;;;;;;1.80;1.63;;;;;;;11.82;100.00;100060.75;5069940;28;20449;-71
2021/05/13 03:52:58;;;;;;;2.50;1.50;;;;;;;11.79;100.00;100056.78;5061016;28;21042;-71
2021/05/13 03:55:24;;;;;;;2.00;1.90;;;;;;;11.78;100.00;100054.41;5073252;28;20441;-71
2021/05/13 03:57:54;;;;;;;3.13;2.30;;;;;;;11.90;100.00;100065.38;5056296;28;20446;-71
2021/05/13 04:00:27;;;;;;;3.07;1.90;;;;;;;11.91;100.00;100064.28;5054430;28;20503;-72
2021/05/13 04:02:53;;;;;;;3.27;1.60;;;;;;;11.89;100.00;100042.09;5072796;28;20529;-70
2021/05/13 04:05:19;;;;;;;3.57;1.57;;;;;;;11.83;100.00;100038.75;5072755;28;20484;-72
2021/05/13 04:07:47;;;;;;;1.50;1.40;;;;;;;11.83;100.00;100036.03;5052907;28;20470;-71
2021/05/13 04:10:13;;;;;;;1.23;1.07;;;;;;;11.78;100.00;100038.09;5065502;28;20445;-72
2021/05/13 04:12:40;;;;;;;1.87;1.57;;;;;;;11.81;100.00;100037.44;5054886;28;20478;-71
2021/05/13 04:15:10;;;;;;;1.77;1.17;;;;;;;11.89;100.00;100044.81;5065883;28;20453;-71
2021/05/13 04:17:36;;;;;;;2.07;1.40;;;;;;;11.91;100.00;100030.91;5072170;28;20511;-70
2021/05/13 04:20:03;;;;;;;3.37;1.80;;;;;;;11.85;100.00;100024.84;5066909;28;20443;-71
2021/05/13 04:22:29;;;;;;;3.53;1.27;;;;;;;11.91;100.00;100025.47;5053231;28;20446;-70
2021/05/13 04:24:55;;;;;;;1.00;0.90;;;;;;;11.97;100.00;100021.47;5054167;28;20454;-70
2021/05/13 04:27:21;;;;;;;4.13;1.70;;;;;;;12.04;100.00;100029.91;5055799;28;20477;-71
2021/05/13 04:29:47;;;;;;;1.47;1.00;;;;;;;12.03;100.00;100022.88;5066390;28;20461;-70
2021/05/13 04:32:14;;;;;;;1.93;1.20;;;;;;;11.98;100.00;100029.28;5054124;28;20458;-72
2021/05/13 04:34:40;;;;;;;6.07;2.83;;;;;;;12.02;100.00;100032.16;5073088;28;20437;-72
2021/05/13 04:37:06;;;;;;;4.27;1.97;;;;;;;12.09;100.00;100029.75;5071041;28;20453;-73
2021/05/13 04:39:32;;;;;;;3.50;2.37;;;;;;;12.16;100.00;100034.66;5064399;28;20452;-71
2021/05/13 04:41:58;;;;;;;2.73;1.30;;;;;;;12.12;100.00;100042.66;5072453;28;20472;-72
2021/05/13 04:44:23;;;;;;;2.03;1.33;;;;;;;12.21;100.00;100037.19;5072710;28;20437;-72
2021/05/13 04:46:57;;;;;;;3.70;1.63;;;;;;;12.23;100.00;100040.41;5058398;28;20991;-72
2021/05/13 04:49:24;;;;;;;2.47;1.37;;;;;;;12.23;100.00;100037.69;5059998;28;20450;-72
2021/05/13 04:51:50;;;;;;;3.00;1.47;;;;;;;12.31;100.00;100034.16;5060611;28;20445;-71
2021/05/13 04:54:17;;;;;;;2.67;1.63;;;;;;;12.30;100.00;100038.75;5072171;28;20449;-71
2021/05/13 04:56:44;;;;;;;1.93;1.00;;;;;;;12.15;100.00;100031.16;5072587;28;20891;-72
2021/05/13 04:59:10;;;;;;;3.07;1.63;;;;;;;12.18;100.00;100037.88;5071598;28;20843;-73
2021/05/13 05:01:36;;;;;;;2.43;2.00;;;;;;;12.14;100.00;100032.28;5056642;28;20960;-72
2021/05/13 05:04:03;;;;;;;2.23;1.30;;;;;;;12.13;100.00;100030.69;5056556;28;20950;-71
2021/05/13 05:06:30;;;;;;;3.27;2.77;;;;;;;12.11;100.00;100028.28;5070625;28;20502;-72
2021/05/13 05:08:56;;;;;;;1.50;1.40;;;;;;;12.11;100.00;100027.50;5076829;28;20862;-71
2021/05/13 05:11:22;;;;;;;2.67;1.70;;;;;;;12.24;100.00;100029.22;5064023;28;20441;-71
2021/05/13 05:13:48;;;;;;;2.67;1.43;;;;;;;12.31;100.00;100031.44;5064608;28;20445;-74
2021/05/13 05:16:14;;;;;;;2.97;1.37;;;;;;;12.36;100.00;100025.81;5064862;28;20453;-70
2021/05/13 05:18:40;;;;;;;2.50;2.03;;;;;;;12.39;100.00;100019.72;5076719;28;20437;-69
2021/05/13 05:21:06;;;;;;;2.17;1.57;;;;;;;12.45;100.00;100023.06;5065455;28;20953;-73
2021/05/13 05:23:33;;;;;;;3.77;1.50;;;;;;;12.51;100.00;100032.59;5056424;28;20457;-72
2021/05/13 05:26:00;;;;;;;2.00;1.67;;;;;;;12.53;100.00;100024.94;5064962;28;20480;-73
2021/05/13 05:28:26;;;;;;;3.63;2.27;;;;;;;12.55;100.00;100028.91;5076032;28;20863;-72
2021/05/13 05:30:52;;;;;;;2.10;1.43;;;;;;;12.47;100.00;100023.50;5071440;28;20450;-72
2021/05/13 05:33:18;;;;;;;2.03;1.47;;;;;;;12.38;100.00;100032.50;5056344;28;20474;-72
2021/05/13 05:35:44;;;;;;;1.40;1.07;;;;;;;12.46;100.00;100025.44;5056491;28;20520;-72
2021/05/13 05:38:11;;;;;;;2.37;1.30;;;;;;;12.46;100.00;100019.22;5056260;28;20940;-71
2021/05/13 05:40:40;;;;;;;7.20;3.43;;;;;;;12.50;100.00;100020.94;5060841;28;20823;-72
2021/05/13 05:43:07;;;;;;;2.93;2.00;;;;;;;12.56;100.00;100024.25;5074384;28;20453;-71
2021/05/13 05:45:33;;;;;;;2.73;1.30;;;;;;;12.55;100.00;100026.19;5070080;28;20476;-71
2021/05/13 05:48:03;;;;;;;1.43;1.33;;;;;;;12.58;100.00;100019.31;5074364;28;20448;-70
2021/05/13 05:50:30;;;;;;;1.30;1.10;;;;;;;12.53;100.00;100019.50;5073872;28;20490;-73
2021/05/13 05:52:57;;;;;;;1.73;1.30;;;;;;;12.54;100.00;100021.88;5072901;28;20449;-73
2021/05/13 05:55:23;;;;;;;2.60;1.80;;;;;;;12.58;100.00;100017.38;5074876;28;20449;-73
2021/05/13 05:57:50;;;;;;;3.50;1.63;;;;;;;12.57;100.00;100018.53;5055820;28;20453;-72
2021/05/13 06:00:17;;;;;;;1.10;0.87;;;;;;;12.49;100.00;100011.22;5055739;28;20442;-72
2021/05/13 06:02:44;;;;;;;4.30;2.13;;;;;;;12.46;100.00;100019.22;5058435;28;20450;-71
2021/05/13 06:05:11;;;;;;;2.20;1.20;;;;;;;12.49;100.00;100018.56;5055894;28;20490;-73
2021/05/13 06:07:38;;;;;;;2.33;1.50;;;;;;;12.47;100.00;100015.38;5070745;23;21016;-80
2021/05/13 06:10:06;;;;;;;4.87;2.03;;;;;;;12.40;100.00;100012.38;5068259;28;20517;-80
2021/05/13 06:12:33;;;;;;;2.67;1.70;;;;;;;12.41;100.00;100005.81;5059788;28;20503;-81
2021/05/13 06:14:59;;;;;;;1.43;1.10;;;;;;;12.37;100.00;100000.25;5085482;22;20555;-80
2021/05/13 06:17:27;;;;;;;3.57;1.20;;;;;;;12.19;100.00;100009.59;5081341;28;20441;-81
2021/05/13 06:19:55;;;;;;;1.57;1.47;;;;;;;12.11;100.00;99997.63;5081388;28;20461;-81
2021/05/13 06:22:21;;;;;;;1.93;1.40;;;;;;;12.16;100.00;99989.31;5079693;28;20441;-81
2021/05/13 06:24:47;;;;;;;2.50;1.97;;;;;;;12.15;100.00;99970.63;5080009;28;21060;-81
2021/05/13 06:27:13;;;;;;;2.00;1.50;;;;;;;12.07;100.00;99954.06;5079778;28;20575;-80
2021/05/13 06:29:39;;;;;;;1.70;1.57;;;;;;;12.10;100.00;99928.19;5080056;28;20445;-82
2021/05/13 06:32:06;;;;;;;5.10;1.80;;;;;;;12.21;100.00;99944.88;5080837;28;20456;-80
2021/05/13 06:34:32;;;;;;;3.20;2.27;;;;;;;12.25;100.00;99973.78;5080418;28;20462;-81
2021/05/13 06:37:00;;;;;;;1.43;1.33;;;;;;;12.22;100.00;99985.31;5080718;28;20440;-81
2021/05/13 06:39:26;;;;;;;5.90;1.33;;;;;;;12.02;100.00;99991.44;5079802;28;20445;-82
2021/05/13 06:41:52;;;;;;;6.40;2.70;;;;;;;12.06;100.00;99986.97;5079486;28;20475;-81
2021/05/13 06:44:19;;;;;;;2.10;1.77;;;;;;;12.10;100.00;99985.19;5079228;28;20507;-81
2021/05/13 06:46:45;;;;;;;7.00;3.23;;;;;;;11.99;100.00;99989.38;5081508;28;20505;-82
2021/05/13 06:49:12;;;;;;;4.73;1.87;;;;;;;11.93;100.00;99987.97;5079776;28;20561;-82
2021/05/13 06:51:39;;;;;;;3.50;1.73;;;;;;;11.90;100.00;99985.91;5078296;28;20860;-82
2021/05/13 06:54:05;;;;;;;3.13;1.63;;;;;;;11.92;100.00;99984.47;5079886;28;21054;-81
2021/05/13 06:56:31;;;;;;;4.03;2.00;;;;;;;11.91;100.00;99990.19;5079622;28;20450;-81
2021/05/13 06:58:58;;;;;;;2.17;1.40;;;;;;;11.98;100.00;99985.88;5079695;28;20453;-81
2021/05/13 07:01:24;;;;;;;3.70;1.80;;;;;;;12.10;100.00;99982.47;5079827;28;20456;-81
2021/05/13 07:03:50;;;;;;;2.63;1.20;;;;;;;12.09;100.00;99991.75;5079301;28;20987;-82
2021/05/13 07:06:17;;;;;;;2.23;1.33;;;;;;;12.05;100.00;99983.47;5078583;28;20481;-82
2021/05/13 07:08:43;;;;;;;2.17;1.40;;;;;;;12.07;100.00;99980.41;5079004;28;20455;-81
2021/05/13 07:11:09;;;;;;;2.50;1.80;;;;;;;12.10;100.00;99977.03;5079718;28;20437;-81
2021/05/13 07:13:36;;;;;;;3.30;1.37;;;;;;;12.05;100.00;99972.59;5079724;28;20472;-81
2021/05/13 07:16:02;;;;;;;2.77;1.13;;;;;;;12.07;100.00;99978.47;5078558;28;20445;-81
2021/05/13 07:18:28;;;;;;;2.10;1.30;;;;;;;12.12;100.00;99974.78;5079956;28;20947;-80
2021/05/13 07:20:55;;;;;;;1.97;1.10;;;;;;;12.22;100.00;99981.78;5081055;28;20445;-81
2021/05/13 07:23:22;;;;;;;2.27;1.33;;;;;;;12.14;100.00;99969.06;5079098;28;20990;-81
2021/05/13 07:25:48;;;;;;;2.83;1.73;;;;;;;12.07;100.00;99972.25;5080620;28;20472;-81
2021/05/13 07:28:14;;;;;;;1.97;1.30;;;;;;;12.07;100.00;99973.06;5081458;28;20430;-82
2021/05/13 07:30:42;;;;;;;2.03;1.20;;;;;;;12.13;100.00;99962.84;5081677;28;20434;-82
2021/05/13 07:33:09;;;;;;;1.37;1.27;;;;;;;12.18;100.00;99970.78;5083070;28;20472;-81
2021/05/13 07:35:35;;;;;;;2.77;1.30;;;;;;;12.21;100.00;99964.69;5082246;28;20449;-83
2021/05/13 07:38:02;;;;;;;2.50;2.03;;;;;;;12.20;100.00;99959.59;5082607;28;20460;-81
2021/05/13 07:40:30;;;;;;;2.07;1.20;;;;;;;12.22;100.00;99963.59;5085134;28;20441;-81
2021/05/13 07:42:56;;;;;;;1.70;1.20;;;;;;;12.26;100.00;99967.25;5084797;28;20440;-81
2021/05/13 07:45:23;;;;;;;1.30;1.10;;;;;;;12.15;100.00;99968.72;5084950;28;20518;-80
2021/05/13 07:47:50;;;;;;;3.43;1.20;;;;;;;12.13;100.00;99968.25;5087782;28;20457;-81
2021/05/13 07:50:18;;;;;;;3.47;2.70;;;;;;;12.02;100.00;99967.81;5087964;28;20437;-81
2021/05/13 07:52:45;;;;;;;1.77;1.03;;;;;;;12.07;100.00;99961.41;5084580;28;20803;-78
2021/05/13 07:55:12;;;;;;;1.63;1.43;;;;;;;12.07;100.00;99967.63;5078692;28;20468;-78
2021/05/13 07:57:39;;;;;;;3.53;1.40;;;;;;;12.18;100.00;99965.34;5077079;28;20434;-77
2021/05/13 08:00:06;;;;;;;1.23;1.20;;;;;;;12.26;100.00;99963.69;5079397;28;20445;-78
2021/05/13 08:02:32;;;;;;;6.97;2.50;;;;;;;12.22;100.00;99970.91;5079482;28;20443;-78
2021/05/13 08:04:58;;;;;;;2.27;1.77;;;;;;;12.27;100.00;99963.41;5079670;28;20469;-78
2021/05/13 08:07:24;;;;;;;1.83;0.80;;;;;;;12.32;100.00;99960.47;5078713;28;21015;-78
2021/05/13 08:09:50;;;;;;;1.70;1.33;;;;;;;12.34;100.00;99962.88;5079492;28;20458;-79
2021/05/13 08:12:17;;;;;;;1.83;1.10;;;;;;;12.37;100.00;99967.66;5081294;28;20441;-78
2021/05/13 08:14:44;;;;;;;5.03;2.50;;;;;;;12.37;100.00;99968.44;5078858;28;20988;-78
2021/05/13 08:17:10;;;;;;;3.13;1.83;;;;;;;12.30;100.00;99972.78;5079177;28;20790;-78
2021/05/13 08:19:36;;;;;;;6.60;1.53;;;;;;;12.31;100.00;99968.97;5079097;28;20441;-78
2021/05/13 08:22:03;;;;;;;2.17;1.37;;;;;;;12.27;100.00;99979.69;5078039;28;20460;-78
2021/05/13 08:24:29;;;;;;;2.30;1.37;;;;;;;12.21;100.00;99986.41;5079163;28;20461;-78
2021/05/13 08:26:57;;;;;;;3.67;2.30;;;;;;;12.07;100.00;99991.25;5077131;28;20572;-79
2021/05/13 08:29:24;;;;;;;1.67;1.00;;;;;;;12.07;100.00;99988.56;5080239;28;20445;-78
2021/05/13 08:31:51;;;;;;;1.73;1.00;;;;;;;12.14;100.00;99978.00;5079728;28;20441;-78
2021/05/13 08:34:17;;;;;;;1.80;1.43;;;;;;;12.10;100.00;99987.91;5079510;28;20457;-78
2021/05/13 08:36:43;;;;;;;2.67;1.60;;;;;;;12.02;100.00;99978.66;5080099;28;20900;-79
2021/05/13 08:39:09;;;;;;;1.23;1.00;;;;;;;12.05;100.00;99966.38;5081496;28;20429;-79
2021/05/13 08:41:36;;;;;;;3.30;2.00;;;;;;;12.12;100.00;99961.22;5081318;28;20444;-79
2021/05/13 08:44:02;;;;;;;0.77;0.70;;;;;;;12.14;100.00;99963.63;5080164;28;20530;-82
2021/05/13 08:46:28;;;;;;;1.50;1.37;;;;;;;12.08;100.00;99980.06;5081163;28;20485;-81
2021/05/13 08:48:55;;;;;;;13.97;2.20;;;;;;;12.10;100.00;99974.34;5081247;28;20491;-78
2021/05/13 08:51:21;;;;;;;1.67;1.30;;;;;;;11.98;100.00;99972.28;5079549;28;20445;-78
2021/05/13 08:53:52;;;;;;;3.43;1.60;;;;;;;11.93;100.00;99966.25;5078481;28;20485;-80
2021/05/13 08:56:18;;;;;;;2.60;1.70;;;;;;;11.88;100.00;99967.22;5078137;28;20952;-79
2021/05/13 08:58:45;;;;;;;1.30;0.90;;;;;;;11.97;100.00;99953.63;5077279;28;20456;-80
2021/05/13 09:01:15;;;;;;;1.33;1.20;;;;;;;11.94;100.00;99959.69;5077248;28;20460;-80
2021/05/13 09:03:42;;;;;;;3.87;1.10;;;;;;;12.01;100.00;99951.84;5077416;28;20472;-80
2021/05/13 09:06:17;;;;;;;4.37;1.57;;;;;;;12.06;100.00;99954.38;5076831;28;20556;-80
2021/05/13 09:08:43;;;;;;;2.47;1.07;;;;;;;11.96;100.00;99952.03;5077049;28;20409;-81
2021/05/13 09:11:10;;;;;;;1.57;1.03;;;;;;;11.93;100.00;99955.41;5077832;28;20513;-81
2021/05/13 09:13:36;;;;;;;2.00;1.50;;;;;;;11.80;100.00;99940.88;5077806;28;20527;-81
2021/05/13 09:16:25;;;;;;;1.50;0.90;;;;;;;11.89;100.00;99935.47;5077670;28;20453;-81
2021/05/13 09:18:51;;;;;;;3.23;1.17;;;;;;;11.92;100.00;99924.75;5077346;28;20944;-81
2021/05/13 09:21:18;;;;;;;4.60;1.47;;;;;;;11.90;100.00;99926.19;5077630;28;20441;-81
2021/05/13 09:23:44;;;;;;;1.63;1.00;;;;;;;11.90;100.00;99923.47;5076646;28;20968;-80
2021/05/13 09:26:11;;;;;;;2.50;1.23;;;;;;;11.94;100.00;99925.22;5079972;28;20998;-79
2021/05/13 09:28:38;;;;;;;1.53;0.63;;;;;;;11.93;100.00;99936.41;5077573;28;20487;-80
2021/05/13 09:31:05;;;;;;;0.73;0.57;;;;;;;11.98;100.00;99938.94;5077946;28;20463;-80
2021/05/13 09:33:34;;;;;;;1.80;1.07;;;;;;;11.96;100.00;99941.97;5095962;28;20805;-78
2021/05/13 09:36:30;;;;;;;;;;;;;;;;;;;;;
2021/05/13 09:38:56;;;;;;;2.13;1.23;;;;;;;11.98;100.00;99974.22;5100913;28;20520;-79
2021/05/13 09:41:30;;;;;;;1.10;1.00;;;;;;;11.94;100.00;99975.97;5100798;28;20493;-80
2021/05/13 09:43:59;;;;;;;1.50;1.13;;;;;;;11.81;100.00;99967.69;5097849;28;20464;-82
2021/05/13 09:46:33;;;;;;;1.00;0.90;;;;;;;11.79;100.00;99956.38;5098302;28;20476;-81
2021/05/13 09:49:09;;;;;;;1.17;0.70;;;;;;;11.69;100.00;99928.81;5102838;28;20455;-82
2021/05/13 09:51:49;;;;;;;0.90;0.77;;;;;;;11.69;100.00;99904.41;5103494;28;20447;-81
2021/05/13 09:54:35;;;;;;;1.43;0.90;;;;;;;11.65;100.00;99890.69;5103241;28;20440;-83
2021/05/13 09:57:01;;;;;;;0.60;0.50;;;;;;;11.65;100.00;99898.03;5103199;28;20421;-83
2021/05/13 09:59:28;;;;;;;3.60;1.43;;;;;;;11.80;100.00;99911.03;5102816;28;20436;-83
2021/05/13 10:02:10;;;;;;;0.90;0.73;;;;;;;11.74;100.00;99912.34;5102706;28;20498;-83
2021/05/13 10:04:37;;;;;;;1.00;0.80;;;;;;;11.84;100.00;99925.59;5103445;28;20491;-82
2021/05/13 10:07:04;;;;;;;1.43;0.73;;;;;;;11.83;100.00;99913.94;5103121;28;20492;-82
2021/05/13 10:09:31;;;;;;;1.80;1.10;;;;;;;11.83;100.00;99916.66;5101863;28;20803;-82
2021/05/13 10:11:59;;;;;;;1.43;0.97;;;;;;;11.84;100.00;99922.88;5101823;28;20440;-82
2021/05/13 10:14:26;;;;;;;0.67;0.50;;;;;;;11.85;100.00;99925.25;5101749;28;20476;-81
2021/05/13 10:16:56;;;;;;;0.87;0.63;;;;;;;11.90;100.00;99918.06;5101489;28;20455;-81
2021/05/13 10:19:26;;;;;;;1.27;0.90;;;;;;;11.88;100.00;99912.16;5101613;28;20489;-81
2021/05/13 10:21:53;;;;;;;0.90;0.63;;;;;;;11.89;100.00;99913.75;5101612;28;20449;-82
2021/05/13 10:24:20;;;;;;;1.23;0.87;;;;;;;11.92;100.00;99907.69;5101290;28;20452;-82
2021/05/13 10:26:49;;;;;;;3.77;1.33;;;;;;;11.99;100.00;99895.16;5102341;28;20978;-82
2021/05/13 10:29:33;;;;;;;2.90;0.93;;;;;;;12.00;100.00;99901.41;5102494;28;20459;-81
2021/05/13 10:32:15;;;;;;;1.40;0.53;;;;;;;12.00;100.00;99899.50;5101160;28;20405;-82
2021/05/13 10:35:07;;;;;;;0.50;0.43;;;;;;;11.96;100.00;99895.06;5101221;28;20971;-83
2021/05/13 10:37:36;;;;;;;0.87;0.60;;;;;;;12.05;100.00;99898.50;5098257;28;20459;-82
2021/05/13 10:40:30;;;;;;;0.90;0.70;;;;;;;12.05;100.00;99902.03;5101254;28;20449;-82
2021/05/13 10:43:00;;;;;;;0.60;0.47;;;;;;;12.09;100.00;99897.53;5105072;28;20441;-81
2021/05/13 10:45:56;;;;;;;1.00;0.90;;;;;;;11.94;100.00;99903.50;5117405;28;20504;-82
2021/05/13 10:48:28;;;;;;;0.90;0.60;;;;;;;12.08;100.00;99905.97;5071825;28;20447;-82
2021/05/13 10:51:01;;;;;;;1.33;0.90;;;;;;;12.10;100.00;99909.19;5098947;28;20432;-82
2021/05/13 10:53:48;;;;;;;1.70;0.87;;;;;;;12.15;100.00;99925.28;5099169;28;20555;-81
2021/05/13 10:56:19;;;;;;;1.23;0.60;;;;;;;12.22;100.00;99922.84;5089299;28;20472;-81
2021/05/13 10:59:02;;;;;;;1.37;0.90;;;;;;;12.19;100.00;99923.50;5097680;28;20424;-82
2021/05/13 11:01:37;;;;;;;3.70;1.33;;;;;;;12.17;100.00;99931.16;5099776;28;20478;-82
2021/05/13 11:04:42;;;;;;;1.60;0.70;;;;;;;12.16;100.00;99917.94;5099725;28;20558;-82
2021/05/13 11:07:26;;;;;;;0.80;0.70;;;;;;;12.11;100.00;99916.97;5101428;28;20555;-80
2021/05/13 11:10:11;;;;;;;;;;;;;;;;;;;;;
2021/05/13 11:12:42;;;;;;;1.00;0.70;;;;;;;12.11;100.00;99916.19;5106300;28;20492;-80
2021/05/13 11:15:13;;;;;;;2.53;1.20;;;;;;;12.11;100.00;99913.47;5109291;28;20460;-79
2021/05/13 11:18:16;;;;;;;0.70;0.60;;;;;;;12.17;100.00;99923.00;5107145;28;20920;-79
2021/05/13 11:20:56;;;;;;;1.70;1.17;;;;;;;12.18;100.00;99932.78;5038518;28;20499;-83
2021/05/13 11:23:27;;;;;;;1.03;0.60;;;;;;;12.19;100.00;99928.13;5039537;28;20482;-80
2021/05/13 11:25:55;;;;;;;0.97;0.60;;;;;;;12.21;100.00;99932.09;5075292;28;20847;-80
2021/05/13 11:28:28;;;;;;;2.03;0.90;;;;;;;12.27;100.00;99935.44;5099937;28;20853;-80
2021/05/13 11:30:56;;;;;;;1.70;1.10;;;;;;;12.32;100.00;99936.03;5100318;28;20459;-80